createdAt,value
2018-07-10T00:03:12.964Z,46.88
2018-07-10T00:06:46.139Z,47.05
2018-07-10T00:11:07.823Z,46.58
2018-07-10T00:14:09.936Z,47.01
2018-07-10T00:17:12.120Z,47.23
2018-07-10T00:20:14.309Z,47.23
2018-07-10T00:23:16.300Z,47.91
2018-07-10T00:26:18.435Z,47.68
2018-07-10T00:29:20.522Z,47.79
2018-07-10T00:32:22.647Z,47.91
2018-07-10T00:35:25.134Z,47.83
2018-07-10T00:38:38.856Z,47.59
2018-07-10T00:41:41.561Z,48.14
2018-07-10T00:44:43.562Z,48.03
2018-07-10T00:47:45.714Z,48.19
2018-07-10T00:50:47.828Z,48.34
2018-07-10T00:53:50.078Z,48.63
2018-07-10T00:56:52.167Z,48.37
2018-07-10T00:59:54.256Z,48.62
2018-07-10T01:02:56.950Z,48.20
2018-07-10T01:05:58.984Z,48.76
2018-07-10T01:09:01.162Z,49.10
2018-07-10T01:12:03.193Z,48.40
2018-07-10T01:15:05.427Z,49.33
2018-07-10T01:18:07.651Z,49.13
2018-07-10T01:21:19.835Z,49.26
2018-07-10T01:24:21.975Z,49.53
2018-07-10T01:27:23.955Z,49.59
2018-07-10T01:30:26.015Z,49.23
2018-07-10T01:33:29.192Z,49.43
2018-07-10T01:36:31.174Z,49.59
2018-07-10T01:39:33.258Z,49.74
2018-07-10T01:42:35.432Z,49.02
2018-07-10T01:45:37.552Z,48.59
2018-07-10T01:48:39.629Z,50.51
2018-07-10T01:51:41.726Z,50.81
2018-07-10T01:54:43.759Z,50.48
2018-07-10T01:57:46.172Z,49.96
2018-07-10T02:00:48.429Z,49.42
2018-07-10T02:03:50.468Z,50.72
2018-07-10T02:06:52.462Z,50.93
2018-07-10T02:09:54.636Z,50.19
2018-07-10T02:12:56.719Z,50.64
2018-07-10T02:15:58.888Z,50.97
2018-07-10T02:19:01.043Z,50.42
2018-07-10T02:22:04.394Z,51.07
2018-07-10T02:25:06.503Z,52.34
2018-07-10T02:28:09.740Z,51.59
2018-07-10T02:31:11.843Z,52.76
2018-07-10T02:34:13.980Z,53.46
2018-07-10T02:37:15.999Z,53.01
2018-07-10T02:40:18.063Z,53.69
2018-07-10T02:43:20.214Z,53.97
2018-07-10T02:46:22.339Z,53.97
2018-07-10T02:49:24.503Z,52.75
2018-07-10T02:52:39.612Z,53.79
2018-07-10T02:55:42.921Z,54.10
2018-07-10T02:58:45.373Z,54.37
2018-07-10T03:01:47.559Z,53.54
2018-07-10T03:04:56.440Z,54.69
2018-07-10T03:08:00.049Z,55.29
2018-07-10T03:11:02.147Z,53.81
2018-07-10T03:14:06.681Z,55.74
2018-07-10T03:17:08.703Z,56.09
2018-07-10T03:20:10.926Z,56.29
2018-07-10T03:23:13.120Z,56.01
2018-07-10T03:26:15.239Z,56.11
2018-07-10T03:29:17.400Z,56.16
2018-07-10T03:32:19.816Z,55.29
2018-07-10T03:35:21.851Z,54.38
2018-07-10T03:38:23.812Z,56.29
2018-07-10T03:41:26.947Z,56.89
2018-07-10T03:44:29.529Z,57.33
2018-07-10T03:47:31.916Z,57.43
2018-07-10T03:50:34.288Z,57.64
2018-07-10T03:53:36.458Z,58.03
2018-07-10T03:56:38.662Z,58.22
2018-07-10T03:59:45.687Z,58.24
2018-07-10T04:02:49.838Z,58.03
2018-07-10T04:05:51.956Z,58.07
2018-07-10T04:08:54.303Z,58.26
2018-07-10T04:11:56.435Z,58.83
2018-07-10T04:14:59.523Z,58.61
2018-07-10T04:18:06.153Z,58.61
2018-07-10T04:21:18.908Z,58.68
2018-07-10T04:24:21.498Z,58.80
2018-07-10T04:27:30.132Z,58.80
2018-07-10T04:30:40.744Z,58.99
2018-07-10T04:33:44.611Z,59.30
2018-07-10T04:36:47.257Z,59.62
2018-07-10T04:39:49.336Z,59.84
2018-07-10T04:42:55.306Z,59.67
2018-07-10T04:45:58.537Z,60.48
2018-07-10T04:49:05.341Z,60.67
2018-07-10T04:52:17.649Z,60.63
2018-07-10T04:55:19.942Z,59.92
2018-07-10T04:58:22.020Z,60.46
2018-07-10T05:01:32.519Z,60.38
2018-07-10T05:04:34.784Z,60.21
2018-07-10T05:07:37.250Z,60.19
2018-07-10T05:10:39.492Z,59.82
2018-07-10T05:13:43.177Z,60.45
2018-07-10T05:16:45.501Z,60.21
2018-07-10T05:19:47.995Z,60.73
2018-07-10T05:22:50.141Z,61.11
2018-07-10T05:25:54.271Z,60.24
2018-07-10T05:28:56.529Z,61.15
2018-07-10T05:31:58.442Z,61.04
2018-07-10T05:35:01.947Z,61.22
2018-07-10T05:38:04.772Z,61.27
2018-07-10T05:41:07.631Z,61.02
2018-07-10T05:44:09.789Z,62.37
2018-07-10T05:47:12.964Z,62.24
2018-07-10T05:50:16.793Z,62.99
2018-07-10T05:53:18.891Z,62.49
2018-07-10T05:56:21.009Z,62.82
2018-07-10T05:59:23.191Z,62.28
2018-07-10T06:02:26.424Z,60.62
2018-07-10T06:05:28.828Z,59.73
2018-07-10T06:08:31.028Z,59.06
2018-07-10T06:11:34.236Z,58.99
2018-07-10T06:14:36.391Z,58.84
2018-07-10T06:17:38.403Z,59.61
2018-07-10T06:20:41.182Z,59.40
2018-07-10T06:23:44.135Z,59.64
2018-07-10T06:26:51.691Z,59.81
2018-07-10T06:30:04.076Z,59.89
2018-07-10T06:33:27.722Z,60.41
2018-07-10T06:36:32.362Z,60.40
2018-07-10T06:39:34.640Z,60.15
2018-07-10T06:43:44.375Z,60.48
2018-07-10T06:46:53.981Z,60.59
2018-07-10T06:49:57.963Z,61.24
2018-07-10T06:53:01.053Z,60.50
2018-07-10T06:56:02.868Z,61.04
2018-07-10T06:59:04.929Z,60.71
2018-07-10T07:02:07.177Z,61.33
2018-07-10T07:05:09.391Z,61.49
2018-07-10T07:08:12.444Z,61.26
2018-07-10T07:11:14.632Z,61.15
2018-07-10T07:14:16.687Z,61.89
2018-07-10T07:17:18.856Z,62.48
2018-07-10T07:20:21.715Z,62.80
2018-07-10T07:23:23.734Z,65.77
2018-07-10T07:26:25.779Z,67.63
2018-07-10T07:29:28.931Z,67.34
2018-07-10T07:32:31.342Z,67.89
2018-07-10T07:35:33.557Z,66.56
2018-07-10T07:38:35.646Z,65.39
2018-07-10T07:41:38.071Z,65.29
2018-07-10T07:44:40.195Z,64.57
2018-07-10T07:47:42.753Z,63.50
2018-07-10T07:50:44.920Z,63.21
2018-07-10T07:53:47.139Z,61.10
2018-07-10T07:56:49.349Z,59.98
2018-07-10T07:59:51.468Z,59.58
2018-07-10T08:02:53.648Z,60.65
2018-07-10T08:05:56.872Z,61.03
2018-07-10T08:08:58.936Z,61.37
2018-07-10T08:12:01.422Z,61.32
2018-07-10T08:15:03.640Z,61.74
2018-07-10T08:18:05.722Z,61.08
2018-07-10T08:21:07.851Z,60.67
2018-07-10T08:24:10.039Z,59.70
2018-07-10T08:27:13.079Z,58.95
2018-07-10T08:30:15.250Z,59.14
2018-07-10T08:33:17.606Z,58.98
2018-07-10T08:36:19.621Z,59.30
2018-07-10T08:39:21.900Z,59.46
2018-07-10T08:42:24.154Z,58.75
2018-07-10T08:45:26.792Z,58.06
2018-07-10T08:48:29.184Z,57.07
2018-07-10T08:51:31.337Z,56.47
2018-07-10T08:54:33.482Z,56.69
2018-07-10T08:57:35.528Z,56.89
2018-07-10T09:00:37.725Z,57.36
2018-07-10T09:03:39.866Z,57.52
2018-07-10T09:06:44.254Z,57.16
2018-07-10T09:09:46.374Z,55.54
2018-07-10T09:12:48.468Z,55.62
2018-07-10T09:15:50.667Z,54.72
2018-07-10T09:18:52.739Z,54.41
2018-07-10T09:22:01.163Z,54.50
2018-07-10T09:25:04.533Z,55.43
2018-07-10T09:28:06.581Z,56.21
2018-07-10T09:31:08.724Z,55.81
2018-07-10T09:34:10.809Z,55.79
2018-07-10T09:37:18.527Z,55.83
2018-07-10T09:40:20.969Z,55.17
2018-07-10T09:43:24.541Z,54.13
2018-07-10T09:46:27.903Z,53.59
2018-07-10T09:49:30.434Z,53.73
2018-07-10T09:52:33.088Z,52.37
2018-07-10T09:55:35.217Z,51.78
2018-07-10T09:58:37.399Z,51.31
2018-07-10T10:01:39.621Z,50.68
2018-07-10T10:04:41.752Z,50.10
2018-07-10T10:07:45.159Z,49.73
2018-07-10T10:10:47.192Z,48.82
2018-07-10T10:13:49.634Z,48.40
2018-07-10T10:16:52.804Z,47.41
2018-07-10T10:19:56.419Z,46.84
2018-07-10T10:23:00.431Z,47.51
2018-07-10T10:26:02.704Z,47.15
2018-07-10T10:29:04.763Z,46.95
2018-07-10T10:32:07.953Z,47.65
2018-07-10T10:35:10.009Z,47.74
2018-07-10T10:38:12.257Z,48.49
2018-07-10T10:41:16.324Z,46.35
2018-07-10T10:44:18.480Z,46.59
2018-07-10T10:47:21.882Z,45.66
2018-07-10T10:50:23.957Z,46.14
2018-07-10T10:53:26.062Z,45.67
2018-07-10T10:56:28.260Z,44.61
2018-07-10T10:59:30.373Z,43.74
2018-07-10T11:02:32.498Z,42.90
2018-07-10T11:05:34.818Z,42.43
2018-07-10T11:08:37.015Z,42.88
2018-07-10T11:11:39.212Z,42.77
2018-07-10T11:14:44.415Z,42.49
2018-07-10T11:17:56.085Z,42.33
2018-07-10T11:21:22.805Z,43.01
2018-07-10T11:24:25.389Z,42.78
2018-07-10T11:27:33.957Z,42.55
2018-07-10T11:30:36.478Z,43.26
2018-07-10T11:33:38.614Z,42.00
2018-07-10T11:36:41.803Z,40.81
2018-07-10T11:39:44.596Z,39.67
2018-07-10T11:42:46.752Z,40.00
2018-07-10T11:45:48.954Z,40.64
2018-07-10T11:48:51.056Z,39.77
2018-07-10T11:51:54.440Z,38.17
2018-07-10T11:54:56.705Z,38.68
2018-07-10T11:57:59.306Z,38.86
2018-07-10T12:01:01.538Z,37.60
2018-07-10T12:04:04.077Z,37.52
2018-07-10T12:07:06.229Z,38.11
2018-07-10T12:10:19.718Z,38.76
2018-07-10T12:13:21.840Z,38.79
2018-07-10T12:16:23.936Z,38.30
2018-07-10T12:19:26.004Z,37.83
2018-07-10T12:22:28.188Z,37.84
2018-07-10T12:25:32.316Z,37.32
2018-07-10T12:28:34.463Z,36.43
2018-07-10T12:31:36.551Z,36.21
2018-07-10T12:34:39.677Z,36.95
2018-07-10T12:37:41.700Z,35.74
2018-07-10T12:40:44.365Z,35.98
2018-07-10T12:43:46.439Z,35.52
2018-07-10T12:46:48.644Z,35.18
2018-07-10T12:49:50.811Z,34.66
2018-07-10T12:52:52.981Z,34.86
2018-07-10T12:55:58.208Z,35.59
2018-07-10T12:59:00.298Z,35.35
2018-07-10T13:02:02.473Z,35.29
2018-07-10T13:05:05.764Z,34.36
2018-07-10T13:08:07.828Z,34.45
2018-07-10T13:11:10.000Z,34.32
2018-07-10T13:14:12.103Z,34.57
2018-07-10T13:17:15.541Z,35.12
2018-07-10T13:20:18.393Z,34.84
2018-07-10T13:23:20.592Z,34.20
2018-07-10T13:26:22.686Z,33.73
2018-07-10T13:29:24.728Z,34.12
2018-07-10T13:32:26.781Z,34.46
2018-07-10T13:35:30.247Z,34.76
2018-07-10T13:38:32.280Z,34.62
2018-07-10T13:41:34.788Z,33.97
2018-07-10T13:44:36.924Z,33.96
2018-07-10T13:47:39.060Z,34.03
2018-07-10T13:50:41.320Z,33.15
2018-07-10T13:53:43.999Z,33.06
2018-07-10T13:56:46.175Z,32.83
2018-07-10T13:59:48.635Z,32.80
2018-07-10T14:02:52.644Z,33.11
2018-07-10T14:05:55.012Z,33.59
2018-07-10T14:08:57.088Z,33.43
2018-07-10T14:11:59.313Z,33.64
2018-07-10T14:15:02.472Z,33.90
2018-07-10T14:18:05.028Z,33.33
2018-07-10T14:21:07.839Z,32.98
2018-07-10T14:24:10.011Z,32.99
2018-07-10T14:27:12.114Z,33.45
2018-07-10T14:30:14.730Z,32.82
2018-07-10T14:33:18.030Z,32.80
2018-07-10T14:36:20.132Z,32.33
2018-07-10T14:39:22.314Z,31.47
2018-07-10T14:42:24.569Z,32.05
2018-07-10T14:45:26.782Z,32.18
2018-07-10T14:48:32.144Z,32.12
2018-07-10T14:51:42.071Z,31.73
2018-07-10T14:54:45.192Z,32.46
2018-07-10T14:57:47.266Z,31.87
2018-07-10T15:00:49.803Z,32.28
2018-07-10T15:03:51.931Z,31.76
2018-07-10T15:06:54.048Z,31.71
2018-07-10T15:09:56.325Z,31.10
2018-07-10T15:12:58.445Z,31.76
2018-07-10T15:16:02.386Z,31.49
2018-07-10T15:19:04.427Z,31.60
2018-07-10T15:22:06.600Z,31.90
2018-07-10T15:25:08.634Z,31.62
2018-07-10T15:28:10.720Z,31.65
2018-07-10T15:31:12.954Z,31.57
2018-07-10T15:34:15.965Z,31.90
2018-07-10T15:37:18.625Z,32.08
2018-07-10T15:40:20.833Z,31.83
2018-07-10T15:43:23.859Z,31.40
2018-07-10T15:46:26.009Z,30.82
2018-07-10T15:49:28.251Z,30.07
2018-07-10T15:52:31.353Z,30.85
2018-07-10T15:55:33.371Z,31.16
2018-07-10T15:58:35.966Z,30.67
2018-07-10T16:01:38.015Z,31.22
2018-07-10T16:04:40.067Z,31.31
2018-07-10T16:07:42.306Z,31.22
2018-07-10T16:10:48.520Z,31.63
2018-07-10T16:13:50.616Z,31.09
2018-07-10T16:16:52.862Z,31.68
2018-07-10T16:20:06.205Z,30.97
2018-07-10T16:23:08.376Z,31.21
2018-07-10T16:26:15.912Z,32.42
2018-07-10T16:29:18.945Z,32.68
2018-07-10T16:32:21.021Z,32.52
2018-07-10T16:35:27.315Z,32.35
2018-07-10T16:38:29.780Z,32.40
2018-07-10T16:41:37.889Z,33.38
2018-07-10T16:44:41.943Z,33.42
2018-07-10T16:47:48.415Z,33.20
2018-07-10T16:51:09.147Z,32.86
2018-07-10T16:54:11.370Z,32.96
2018-07-10T16:57:13.560Z,33.19
2018-07-10T17:00:16.987Z,33.10
2018-07-10T17:03:19.095Z,33.01
2018-07-10T17:06:22.046Z,33.53
2018-07-10T17:09:24.148Z,32.73
2018-07-10T17:12:26.227Z,32.77
2018-07-10T17:15:28.443Z,33.57
2018-07-10T17:18:30.539Z,33.55
2018-07-10T17:21:33.804Z,33.11
2018-07-10T17:24:35.928Z,33.38
2018-07-10T17:27:38.557Z,33.44
2018-07-10T17:30:41.062Z,33.97
2018-07-10T17:33:43.349Z,33.90
2018-07-10T17:36:46.103Z,34.44
2018-07-10T17:39:48.803Z,35.01
2018-07-10T17:42:50.896Z,35.38
2018-07-10T17:45:52.963Z,35.26
2018-07-10T17:48:55.191Z,36.03
2018-07-10T17:51:57.285Z,36.04
2018-07-10T17:54:59.367Z,36.10
2018-07-10T17:58:02.394Z,36.25
2018-07-10T18:01:04.643Z,36.35
2018-07-10T18:04:07.227Z,36.17
2018-07-10T18:07:09.276Z,36.34
2018-07-10T18:10:11.514Z,36.31
2018-07-10T18:13:13.694Z,36.04
2018-07-10T18:16:16.805Z,36.32
2018-07-10T18:19:18.975Z,36.13
2018-07-10T18:22:21.069Z,36.42
2018-07-10T18:25:23.224Z,36.42
2018-07-10T18:28:25.417Z,36.67
2018-07-10T18:31:27.640Z,36.69
2018-07-10T18:34:29.819Z,37.07
2018-07-10T18:37:31.895Z,37.71
2018-07-10T18:40:34.156Z,37.98
2018-07-10T18:43:36.279Z,37.92
2018-07-10T18:46:38.256Z,38.04
2018-07-10T18:49:40.631Z,38.12
2018-07-10T18:52:42.824Z,38.38
2018-07-10T18:55:44.963Z,38.31
2018-07-10T18:58:57.056Z,38.58
2018-07-10T19:02:03.560Z,39.03
2018-07-10T19:05:07.145Z,39.19
2018-07-10T19:08:09.283Z,39.43
2018-07-10T19:11:14.342Z,39.30
2018-07-10T19:14:17.511Z,39.22
2018-07-10T19:17:25.240Z,39.04
2018-07-10T19:20:29.339Z,39.08
2018-07-10T19:23:37.287Z,39.10
2018-07-10T19:26:39.336Z,39.24
2018-07-10T19:29:49.711Z,39.27
2018-07-10T19:32:51.886Z,39.55
2018-07-10T19:35:54.066Z,39.26
2018-07-10T19:38:56.212Z,39.36
2018-07-10T19:41:58.311Z,39.63
2018-07-10T19:45:01.518Z,39.89
2018-07-10T19:48:03.792Z,39.95
2018-07-10T19:51:08.067Z,39.88
2018-07-10T19:54:12.123Z,40.52
2018-07-10T19:57:22.992Z,40.63
2018-07-10T20:00:26.706Z,40.72
2018-07-10T20:03:53.713Z,40.61
2018-07-10T20:07:10.632Z,41.15
2018-07-10T20:10:22.963Z,41.67
2018-07-10T20:13:35.764Z,42.18
2018-07-10T20:16:43.785Z,42.08
2018-07-10T20:19:49.662Z,41.80
2018-07-10T20:23:09.120Z,41.87
2018-07-10T20:26:53.963Z,41.88
2018-07-10T20:30:36.411Z,42.36
2018-07-10T20:35:15.523Z,42.81
2018-07-10T20:38:18.275Z,43.42
2018-07-10T20:41:20.710Z,43.91
2018-07-10T20:44:22.884Z,44.04
2018-07-10T20:47:27.941Z,44.57
2018-07-10T20:50:45.610Z,44.53
2018-07-10T20:53:55.480Z,45.17
2018-07-10T20:57:02.000Z,45.63
2018-07-10T21:00:09.572Z,45.63
2018-07-10T21:03:22.231Z,45.91
2018-07-10T21:06:35.650Z,46.39
2018-07-10T21:09:51.885Z,46.58
2018-07-10T21:13:01.675Z,46.39
2018-07-10T21:16:08.846Z,46.03
2018-07-10T21:19:23.968Z,46.05
2018-07-10T21:23:37.396Z,47.05
2018-07-10T21:26:46.413Z,48.02
2018-07-10T21:29:56.259Z,47.53
2018-07-10T21:33:02.861Z,48.56
2018-07-10T21:36:06.431Z,48.52
2018-07-10T21:39:19.930Z,48.52
2018-07-10T21:42:38.951Z,48.27
2018-07-10T21:45:51.381Z,48.47
2018-07-10T21:49:58.957Z,48.76
2018-07-10T21:53:01.723Z,48.91
2018-07-10T21:56:04.039Z,49.02
2018-07-10T21:59:06.177Z,49.08
2018-07-10T22:02:09.172Z,49.73
2018-07-10T22:05:11.348Z,50.84
2018-07-10T22:08:14.499Z,51.25
2018-07-10T22:11:16.771Z,51.29
2018-07-10T22:14:19.179Z,51.39
2018-07-10T22:17:22.639Z,51.08
2018-07-10T22:20:24.828Z,52.07
2018-07-10T22:23:26.975Z,53.08
2018-07-10T22:26:29.300Z,53.13
2018-07-10T22:29:38.396Z,52.12
2018-07-10T22:32:46.400Z,53.63
2018-07-10T22:35:48.508Z,52.41
2018-07-10T22:38:51.300Z,52.35
2018-07-10T22:41:53.991Z,53.01
2018-07-10T22:44:57.831Z,52.47
2018-07-10T22:48:00.713Z,52.82
2018-07-10T22:51:03.180Z,52.69
2018-07-10T22:54:05.756Z,52.26
2018-07-10T22:57:09.162Z,53.65
2018-07-10T23:00:34.767Z,54.12
2018-07-10T23:03:36.968Z,53.73
2018-07-10T23:06:39.068Z,54.45
2018-07-10T23:09:41.140Z,56.00
2018-07-10T23:12:43.148Z,56.62
2018-07-10T23:15:46.036Z,58.45
2018-07-10T23:18:48.096Z,57.90
2018-07-10T23:21:50.260Z,58.52
2018-07-10T23:24:52.291Z,57.47
2018-07-10T23:27:59.982Z,58.10
2018-07-10T23:31:03.392Z,57.62
2018-07-10T23:34:10.088Z,58.69
2018-07-10T23:37:12.199Z,58.18
2018-07-10T23:40:14.344Z,57.80
2018-07-10T23:43:16.934Z,58.52
2018-07-10T23:46:30.380Z,58.11
2018-07-10T23:49:32.556Z,57.96
2018-07-10T23:53:45.300Z,59.12
2018-07-10T23:56:47.436Z,59.86
2018-07-10T23:59:49.477Z,59.28
